createdAt,value
2019-02-06T00:02:15.753Z,45.80
2019-02-06T00:04:43.221Z,45.70
2019-02-06T00:07:10.699Z,45.70
2019-02-06T00:09:38.232Z,45.80
2019-02-06T00:12:05.702Z,45.50
2019-02-06T00:14:33.221Z,45.60
2019-02-06T00:17:01.068Z,45.50
2019-02-06T00:19:28.590Z,45.60
2019-02-06T00:21:56.054Z,45.60
2019-02-06T00:24:23.530Z,45.70
2019-02-06T00:26:50.993Z,45.70
2019-02-06T00:29:18.595Z,45.70
2019-02-06T00:31:46.117Z,45.60
2019-02-06T00:34:13.966Z,45.60
2019-02-06T00:36:41.430Z,45.60
2019-02-06T00:39:08.889Z,45.60
2019-02-06T00:41:36.352Z,45.60
2019-02-06T00:44:03.824Z,45.60
2019-02-06T00:46:31.663Z,45.60
2019-02-06T00:48:59.137Z,45.60
2019-02-06T00:51:26.986Z,45.60
2019-02-06T00:53:54.451Z,45.80
2019-02-06T00:56:21.910Z,45.80
2019-02-06T00:58:49.465Z,45.70
2019-02-06T01:01:16.927Z,45.70
2019-02-06T01:03:44.389Z,45.50
2019-02-06T01:06:11.853Z,45.50
2019-02-06T01:08:39.322Z,45.50
2019-02-06T01:11:06.786Z,45.40
2019-02-06T01:13:34.250Z,45.50
2019-02-06T01:16:01.715Z,45.40
2019-02-06T01:18:29.184Z,45.40
2019-02-06T01:20:56.655Z,45.30
2019-02-06T01:23:24.194Z,45.40
2019-02-06T01:25:51.721Z,45.60
2019-02-06T01:28:19.462Z,45.50
2019-02-06T01:30:48.565Z,45.50
2019-02-06T01:33:16.033Z,45.60
2019-02-06T01:35:49.920Z,45.50
2019-02-06T01:38:12.773Z,45.60
2019-02-06T01:40:40.251Z,45.60
2019-02-06T01:43:07.722Z,45.60
2019-02-06T01:45:35.672Z,45.50
2019-02-06T01:48:03.125Z,45.60
2019-02-06T01:50:30.593Z,45.50
2019-02-06T01:52:58.049Z,45.60
2019-02-06T01:55:25.517Z,45.60
2019-02-06T01:57:52.978Z,45.50
2019-02-06T02:00:21.823Z,45.60
2019-02-06T02:02:49.285Z,45.70
2019-02-06T02:05:18.001Z,45.70
2019-02-06T02:07:45.465Z,45.60
2019-02-06T02:10:12.934Z,45.50
2019-02-06T02:12:40.400Z,45.50
2019-02-06T02:15:09.594Z,45.50
2019-02-06T02:17:37.056Z,45.40
2019-02-06T02:20:06.154Z,45.30
2019-02-06T02:22:33.618Z,45.30
2019-02-06T02:25:01.072Z,45.30
2019-02-06T02:27:28.537Z,45.30
2019-02-06T02:29:55.997Z,45.40
2019-02-06T02:32:23.461Z,45.50
2019-02-06T02:34:50.927Z,45.50
2019-02-06T02:37:18.398Z,45.40
2019-02-06T02:39:45.859Z,45.30
2019-02-06T02:42:13.489Z,45.40
2019-02-06T02:44:41.070Z,45.40
2019-02-06T02:47:08.551Z,45.80
2019-02-06T02:49:36.011Z,45.80
2019-02-06T02:52:03.481Z,45.40
2019-02-06T02:54:30.935Z,45.40
2019-02-06T02:56:58.715Z,45.30
2019-02-06T02:59:26.181Z,45.40
2019-02-06T03:02:04.046Z,45.40
2019-02-06T03:04:31.823Z,45.40
2019-02-06T03:06:59.297Z,45.40
2019-02-06T03:09:26.841Z,45.30
2019-02-06T03:11:54.591Z,45.30
2019-02-06T03:14:22.058Z,45.40
2019-02-06T03:16:49.521Z,45.40
2019-02-06T03:19:16.990Z,45.30
2019-02-06T03:21:44.459Z,45.40
2019-02-06T03:24:11.926Z,45.40
2019-02-06T03:26:39.391Z,45.20
2019-02-06T03:29:07.224Z,45.40
2019-02-06T03:31:34.685Z,45.10
2019-02-06T03:34:04.835Z,45.10
2019-02-06T03:36:39.818Z,45.20
2019-02-06T03:39:00.543Z,45.30
2019-02-06T03:41:28.000Z,45.30
2019-02-06T03:43:55.465Z,45.30
2019-02-06T03:46:23.297Z,45.30
2019-02-06T03:48:50.760Z,45.20
2019-02-06T03:51:18.224Z,45.20
2019-02-06T03:53:45.697Z,45.10
2019-02-06T03:58:42.389Z,45.20
2019-02-06T04:01:11.529Z,45.30
2019-02-06T04:03:39.201Z,45.10
2019-02-06T04:06:06.670Z,45.30
2019-02-06T04:08:34.514Z,45.40
2019-02-06T04:11:01.973Z,45.40
2019-02-06T04:13:29.445Z,45.40
2019-02-06T04:15:57.194Z,45.40
2019-02-06T04:18:24.669Z,45.30
2019-02-06T04:20:52.129Z,45.30
2019-02-06T04:23:19.597Z,45.30
2019-02-06T04:25:47.072Z,45.30
2019-02-06T04:28:14.528Z,45.40
2019-02-06T04:30:42.062Z,45.40
2019-02-06T04:33:09.644Z,45.40
2019-02-06T04:35:37.168Z,45.40
2019-02-06T04:38:04.651Z,45.50
2019-02-06T04:40:32.394Z,45.40
2019-02-06T04:42:59.850Z,45.30
2019-02-06T04:45:27.320Z,45.10
2019-02-06T04:47:54.782Z,45.10
2019-02-06T04:50:22.245Z,45.10
2019-02-06T04:52:49.709Z,45.10
2019-02-06T04:55:17.763Z,45.10
2019-02-06T04:57:45.690Z,45.10
2019-02-06T05:00:17.781Z,45.10
2019-02-06T05:02:45.244Z,45.00
2019-02-06T05:05:12.713Z,45.10
2019-02-06T05:07:40.177Z,45.30
2019-02-06T05:10:12.391Z,45.20
2019-02-06T05:12:39.871Z,45.10
2019-02-06T05:15:08.187Z,44.80
2019-02-06T05:17:35.653Z,44.70
2019-02-06T05:20:04.740Z,44.80
2019-02-06T05:22:32.236Z,45.00
2019-02-06T05:24:59.700Z,45.10
2019-02-06T05:27:27.165Z,45.10
2019-02-06T05:29:54.624Z,44.50
2019-02-06T05:32:22.365Z,44.60
2019-02-06T05:34:49.975Z,44.60
2019-02-06T05:37:17.445Z,44.50
2019-02-06T05:39:44.914Z,44.30
2019-02-06T05:42:12.377Z,44.10
2019-02-06T05:44:39.829Z,44.40
2019-02-06T05:47:07.296Z,44.50
2019-02-06T05:49:34.765Z,44.30
2019-02-06T05:52:02.314Z,44.40
2019-02-06T05:54:29.768Z,44.50
2019-02-06T05:56:57.231Z,44.50
2019-02-06T05:59:24.711Z,44.20
2019-02-06T06:01:52.178Z,44.20
2019-02-06T06:04:19.799Z,44.50
2019-02-06T06:06:47.271Z,44.30
2019-02-06T06:09:15.885Z,44.20
2019-02-06T06:11:43.581Z,44.20
2019-02-06T06:14:11.049Z,44.20
2019-02-06T06:16:38.508Z,44.40
2019-02-06T06:19:06.003Z,44.20
2019-02-06T06:21:45.678Z,44.10
2019-02-06T06:24:13.147Z,44.00
2019-02-06T06:26:40.659Z,44.10
2019-02-06T06:29:08.201Z,44.60
2019-02-06T06:31:35.754Z,44.10
2019-02-06T06:34:03.229Z,43.90
2019-02-06T06:36:30.788Z,43.80
2019-02-06T06:38:58.246Z,43.80
2019-02-06T06:41:25.702Z,44.00
2019-02-06T06:43:53.554Z,43.80
2019-02-06T06:46:21.017Z,44.10
2019-02-06T06:48:48.486Z,43.80
2019-02-06T06:51:15.949Z,43.80
2019-02-06T06:53:43.419Z,43.70
2019-02-06T06:56:10.876Z,44.00
2019-02-06T06:58:38.356Z,43.80
2019-02-06T07:01:05.809Z,44.00
2019-02-06T07:03:33.285Z,44.00
2019-02-06T07:06:00.752Z,44.00
2019-02-06T07:08:28.243Z,43.90
2019-02-06T07:10:55.810Z,43.80
2019-02-06T07:13:23.264Z,43.80
2019-02-06T07:15:50.729Z,43.90
2019-02-06T07:18:18.190Z,43.80
2019-02-06T07:20:45.652Z,43.70
2019-02-06T07:23:13.189Z,43.80
2019-02-06T07:25:40.670Z,43.70
2019-02-06T07:28:08.233Z,43.50
2019-02-06T07:30:35.872Z,43.60
2019-02-06T07:33:03.435Z,43.50
2019-02-06T07:35:30.894Z,43.40
2019-02-06T07:37:58.861Z,43.50
2019-02-06T07:40:26.446Z,43.60
2019-02-06T07:42:53.901Z,43.50
2019-02-06T07:45:21.368Z,43.50
2019-02-06T07:47:48.842Z,43.50
2019-02-06T07:50:23.724Z,43.70
2019-02-06T07:52:51.181Z,44.30
2019-02-06T07:55:18.664Z,43.70
2019-02-06T07:57:46.121Z,43.70
2019-02-06T08:00:13.622Z,43.90
2019-02-06T08:02:41.122Z,43.80
2019-02-06T08:05:10.233Z,43.80
2019-02-06T08:07:37.706Z,43.80
2019-02-06T08:10:06.877Z,43.60
2019-02-06T08:12:34.722Z,43.50
2019-02-06T08:15:02.181Z,43.70
2019-02-06T08:17:29.649Z,43.70
2019-02-06T08:19:57.100Z,43.60
2019-02-06T08:22:24.594Z,43.70
2019-02-06T08:24:52.120Z,43.60
2019-02-06T08:27:19.739Z,43.70
2019-02-06T08:29:47.739Z,44.00
2019-02-06T08:32:15.196Z,43.40
2019-02-06T08:34:42.666Z,43.50
2019-02-06T08:37:10.153Z,43.50
2019-02-06T08:39:37.698Z,43.40
2019-02-06T08:42:05.169Z,43.50
2019-02-06T08:44:32.628Z,43.30
2019-02-06T08:47:00.276Z,43.30
2019-02-06T08:49:27.742Z,43.40
2019-02-06T08:51:55.301Z,43.50
2019-02-06T08:54:22.762Z,43.50
2019-02-06T08:56:50.239Z,43.40
2019-02-06T08:59:17.703Z,43.40
2019-02-06T09:01:45.178Z,43.60
2019-02-06T09:04:12.689Z,43.50
2019-02-06T09:06:40.252Z,43.40
2019-02-06T09:09:08.485Z,43.40
2019-02-06T09:11:35.970Z,43.40
2019-02-06T09:14:03.452Z,43.50
2019-02-06T09:16:30.912Z,43.40
2019-02-06T09:18:58.372Z,43.40
2019-02-06T09:21:25.909Z,43.40
2019-02-06T09:23:53.793Z,43.30
2019-02-06T09:26:21.305Z,43.30
2019-02-06T09:28:48.774Z,43.40
2019-02-06T09:31:16.228Z,42.70
2019-02-06T09:33:43.703Z,43.60
2019-02-06T09:36:11.162Z,43.50
2019-02-06T09:38:38.627Z,43.50
2019-02-06T09:41:06.568Z,43.40
2019-02-06T09:43:34.025Z,43.30
2019-02-06T09:46:01.657Z,43.40
2019-02-06T09:48:29.125Z,43.20
2019-02-06T09:50:56.635Z,43.10
2019-02-06T09:53:24.106Z,43.40
2019-02-06T09:55:53.378Z,43.40
2019-02-06T09:58:20.916Z,43.40
2019-02-06T10:00:48.383Z,43.40
2019-02-06T10:03:15.857Z,43.60
2019-02-06T10:05:43.325Z,43.60
2019-02-06T10:08:10.900Z,43.60
2019-02-06T10:10:38.368Z,43.50
2019-02-06T10:13:05.834Z,43.50
2019-02-06T10:15:34.293Z,43.50
2019-02-06T10:18:02.138Z,43.50
2019-02-06T10:20:30.781Z,43.50
2019-02-06T10:22:58.250Z,43.40
2019-02-06T10:25:25.771Z,43.40
2019-02-06T10:27:53.248Z,43.40
2019-02-06T10:30:34.355Z,43.60
2019-02-06T10:33:02.081Z,43.60
2019-02-06T10:35:29.550Z,43.60
2019-02-06T10:37:57.005Z,43.40
2019-02-06T10:40:24.483Z,43.50
2019-02-06T10:42:52.265Z,43.50
2019-02-06T10:45:21.050Z,43.60
2019-02-06T10:47:48.857Z,43.60
2019-02-06T10:50:17.982Z,43.40
2019-02-06T10:52:48.177Z,43.60
2019-02-06T10:55:14.646Z,43.50
2019-02-06T10:57:42.106Z,43.30
2019-02-06T11:00:14.150Z,43.50
2019-02-06T11:02:41.675Z,43.50
2019-02-06T11:05:10.042Z,43.40
2019-02-06T11:07:37.531Z,43.60
2019-02-06T11:10:06.329Z,43.60
2019-02-06T11:12:33.862Z,43.70
2019-02-06T11:15:01.454Z,43.40
2019-02-06T11:17:28.990Z,43.40
2019-02-06T11:19:56.456Z,43.40
2019-02-06T11:22:23.923Z,43.40
2019-02-06T11:24:51.470Z,43.40
2019-02-06T11:27:18.926Z,43.30
2019-02-06T11:29:48.321Z,43.40
2019-02-06T11:32:15.592Z,43.40
2019-02-06T11:34:43.049Z,43.40
2019-02-06T11:37:10.526Z,43.40
2019-02-06T11:39:37.998Z,43.40
2019-02-06T11:42:05.611Z,43.40
2019-02-06T11:44:33.173Z,43.50
2019-02-06T11:47:00.645Z,43.50
2019-02-06T11:49:29.684Z,43.50
2019-02-06T11:51:57.150Z,43.50
2019-02-06T11:54:24.705Z,43.50
2019-02-06T11:56:52.166Z,44.10
2019-02-06T11:59:19.660Z,43.60
2019-02-06T12:01:47.405Z,44.30
2019-02-06T12:04:14.878Z,43.70
2019-02-06T12:06:42.359Z,43.70
2019-02-06T12:09:10.609Z,43.70
2019-02-06T12:11:38.077Z,43.80
2019-02-06T12:14:05.544Z,43.80
2019-02-06T12:16:33.491Z,43.80
2019-02-06T12:19:00.949Z,43.80
2019-02-06T12:21:28.439Z,43.80
2019-02-06T12:23:55.896Z,43.80
2019-02-06T12:26:23.458Z,43.80
2019-02-06T12:28:50.920Z,43.70
2019-02-06T12:31:18.386Z,43.80
2019-02-06T12:33:45.845Z,43.70
2019-02-06T12:36:15.687Z,43.90
2019-02-06T12:38:53.130Z,43.80
2019-02-06T12:41:11.828Z,43.90
2019-02-06T12:43:39.281Z,44.00
2019-02-06T12:46:06.761Z,44.00
2019-02-06T12:48:34.265Z,43.80
2019-02-06T12:51:01.726Z,44.00
2019-02-06T12:53:29.185Z,43.90
2019-02-06T12:55:57.032Z,44.00
2019-02-06T12:58:26.233Z,44.00
2019-02-06T13:00:53.958Z,44.00
2019-02-06T13:03:21.474Z,44.00
2019-02-06T13:05:48.997Z,44.10
2019-02-06T13:08:17.433Z,44.10
2019-02-06T13:10:45.163Z,44.00
2019-02-06T13:13:13.097Z,43.90
2019-02-06T13:15:40.583Z,44.70
2019-02-06T13:18:08.041Z,44.10
2019-02-06T13:20:35.983Z,44.10
2019-02-06T13:23:04.029Z,44.10
2019-02-06T13:25:31.553Z,44.60
2019-02-06T13:27:59.033Z,43.80
2019-02-06T13:30:30.385Z,43.80
2019-02-06T13:32:57.910Z,43.70
2019-02-06T13:35:25.469Z,43.80
2019-02-06T13:37:52.945Z,43.90
2019-02-06T13:40:27.173Z,44.00
2019-02-06T13:42:54.735Z,44.00
2019-02-06T13:45:23.270Z,44.00
2019-02-06T13:47:51.142Z,44.00
2019-02-06T13:50:22.053Z,43.90
2019-02-06T13:52:48.415Z,43.90
2019-02-06T13:55:16.245Z,44.00
2019-02-06T13:57:43.710Z,43.90
2019-02-06T14:00:12.921Z,44.00
2019-02-06T14:02:40.757Z,43.70
2019-02-06T14:05:08.306Z,43.90
2019-02-06T14:07:35.774Z,44.10
2019-02-06T14:10:03.920Z,44.10
2019-02-06T14:12:31.384Z,44.10
2019-02-06T14:14:58.866Z,44.10
2019-02-06T14:17:26.325Z,44.10
2019-02-06T14:19:54.169Z,44.30
2019-02-06T14:22:21.638Z,44.50
2019-02-06T14:24:49.452Z,44.60
2019-02-06T14:27:24.241Z,44.50
2019-02-06T14:30:10.151Z,44.50
2019-02-06T14:32:42.325Z,44.30
2019-02-06T14:35:11.421Z,44.20
2019-02-06T14:37:49.542Z,44.20
2019-02-06T14:40:18.637Z,44.20
2019-02-06T14:43:04.269Z,44.20
2019-02-06T14:45:49.849Z,44.20
2019-02-06T14:48:35.570Z,44.20
2019-02-06T14:51:04.773Z,44.20
2019-02-06T14:53:33.874Z,44.10
2019-02-06T14:56:25.154Z,44.50
2019-02-06T14:59:06.853Z,44.40
2019-02-06T15:01:38.954Z,44.40
2019-02-06T15:04:26.341Z,44.40
2019-02-06T15:06:56.116Z,44.50
2019-02-06T15:09:42.098Z,44.10
2019-02-06T15:12:29.343Z,44.10
2019-02-06T15:14:59.121Z,44.30
2019-02-06T15:17:37.217Z,44.50
2019-02-06T15:20:08.998Z,44.50
2019-02-06T15:22:40.837Z,44.40
2019-02-06T15:25:12.576Z,44.30
2019-02-06T15:27:41.726Z,45.10
2019-02-06T15:30:11.159Z,44.50
2019-02-06T15:33:02.234Z,44.50
2019-02-06T15:35:31.325Z,44.30
2019-02-06T15:38:00.526Z,44.20
2019-02-06T15:40:38.716Z,44.10
2019-02-06T15:43:07.805Z,44.30
2019-02-06T15:45:36.908Z,44.40
2019-02-06T15:48:10.833Z,45.00
2019-02-06T15:50:57.578Z,45.40
2019-02-06T15:53:26.764Z,44.70
2019-02-06T15:55:55.858Z,44.70
2019-02-06T15:58:27.997Z,44.70
2019-02-06T16:01:03.140Z,44.70
2019-02-06T16:03:33.869Z,44.80
2019-02-06T16:06:04.620Z,44.70
2019-02-06T16:08:39.528Z,44.70
2019-02-06T16:11:17.750Z,44.70
2019-02-06T16:13:59.175Z,44.70
2019-02-06T16:16:34.685Z,44.70
2019-02-06T16:19:12.709Z,44.70
2019-02-06T16:21:52.558Z,44.70
2019-02-06T16:24:24.827Z,44.70
2019-02-06T16:27:10.507Z,44.70
2019-02-06T16:29:39.609Z,44.70
2019-02-06T16:32:08.724Z,44.70
2019-02-06T16:34:53.126Z,44.70
2019-02-06T16:37:39.092Z,44.70
2019-02-06T16:40:08.189Z,45.40
2019-02-06T16:42:46.256Z,44.70
2019-02-06T16:45:24.250Z,44.70
2019-02-06T16:47:53.739Z,44.70
2019-02-06T16:50:22.829Z,44.70
2019-02-06T16:52:54.590Z,44.70
2019-02-06T16:55:29.727Z,44.70
2019-02-06T16:58:14.098Z,44.80
2019-02-06T17:00:45.881Z,44.70
2019-02-06T17:03:23.711Z,44.70
2019-02-06T17:05:55.851Z,44.70
2019-02-06T17:08:33.772Z,44.60
2019-02-06T17:11:11.653Z,44.90
2019-02-06T17:13:43.520Z,44.70
2019-02-06T17:16:15.481Z,44.50
2019-02-06T17:18:50.841Z,44.50
2019-02-06T17:21:22.664Z,44.50
2019-02-06T17:23:51.846Z,44.60
2019-02-06T17:26:37.922Z,44.70
2019-02-06T17:29:07.461Z,44.10
2019-02-06T17:31:53.289Z,44.70
2019-02-06T17:34:25.241Z,44.70
2019-02-06T17:36:54.418Z,44.70
2019-02-06T17:39:29.719Z,44.60
2019-02-06T17:42:18.178Z,44.70
2019-02-06T17:44:53.273Z,44.70
2019-02-06T17:47:34.466Z,45.00
2019-02-06T17:50:18.749Z,44.70
2019-02-06T17:53:05.882Z,44.60
2019-02-06T17:55:33.352Z,44.70
2019-02-06T17:58:00.918Z,44.70
2019-02-06T18:00:31.029Z,44.70
2019-02-06T18:02:59.726Z,44.70
2019-02-06T18:05:27.339Z,44.60
2019-02-06T18:07:54.801Z,44.50
2019-02-06T18:10:22.465Z,44.40
2019-02-06T18:12:49.976Z,44.40
2019-02-06T18:15:17.810Z,44.20
2019-02-06T18:17:45.277Z,44.20
2019-02-06T18:20:14.323Z,44.10
2019-02-06T18:22:41.858Z,44.10
2019-02-06T18:25:10.296Z,44.30
2019-02-06T18:27:38.305Z,44.20
2019-02-06T18:30:07.509Z,44.20
2019-02-06T18:32:35.064Z,44.30
2019-02-06T18:35:03.365Z,44.40
2019-02-06T18:37:31.313Z,44.60
2019-02-06T18:39:58.849Z,44.60
2019-02-06T18:42:36.699Z,44.40
2019-02-06T18:44:55.598Z,44.30
2019-02-06T18:47:23.540Z,44.90
2019-02-06T18:49:50.996Z,44.20
2019-02-06T18:52:20.424Z,44.20
2019-02-06T18:54:47.653Z,44.30
2019-02-06T18:57:15.422Z,44.30
2019-02-06T18:59:42.976Z,44.40
2019-02-06T19:02:10.975Z,44.50
2019-02-06T19:04:39.293Z,44.30
2019-02-06T19:07:07.368Z,44.30
2019-02-06T19:09:34.905Z,44.40
2019-02-06T19:12:02.451Z,44.40
2019-02-06T19:14:29.980Z,44.40
2019-02-06T19:16:57.513Z,44.60
2019-02-06T19:19:25.889Z,44.50
2019-02-06T19:21:53.519Z,44.50
2019-02-06T19:24:21.333Z,44.50
2019-02-06T19:26:49.073Z,44.40
2019-02-06T19:29:17.075Z,44.30
2019-02-06T19:31:45.366Z,44.30
2019-02-06T19:34:13.314Z,44.30
2019-02-06T19:36:41.100Z,44.20
2019-02-06T19:39:09.060Z,44.10
2019-02-06T19:41:36.936Z,44.20
2019-02-06T19:44:04.971Z,44.20
2019-02-06T19:46:33.172Z,44.10
2019-02-06T19:49:01.143Z,44.10
2019-02-06T19:51:29.534Z,44.10
2019-02-06T19:53:57.589Z,44.00
2019-02-06T19:56:25.463Z,43.90
2019-02-06T19:58:53.079Z,43.80
2019-02-06T20:01:21.088Z,43.90
2019-02-06T20:03:48.953Z,44.10
2019-02-06T20:06:21.254Z,44.00
2019-02-06T20:08:49.050Z,44.00
2019-02-06T20:11:17.173Z,44.10
2019-02-06T20:13:45.037Z,44.10
2019-02-06T20:16:13.001Z,44.10
2019-02-06T20:18:41.085Z,44.10
2019-02-06T20:21:09.071Z,44.00
2019-02-06T20:23:37.013Z,44.00
2019-02-06T20:26:04.813Z,44.00
2019-02-06T20:28:32.509Z,43.90
2019-02-06T20:31:00.778Z,44.10
2019-02-06T20:33:28.762Z,44.10
2019-02-06T20:35:56.677Z,44.00
2019-02-06T20:38:24.653Z,44.00
2019-02-06T20:40:52.896Z,44.00
2019-02-06T20:43:22.395Z,44.10
2019-02-06T20:45:50.583Z,44.10
2019-02-06T20:48:18.937Z,44.20
2019-02-06T20:50:46.934Z,44.10
2019-02-06T20:53:14.938Z,44.00
2019-02-06T20:55:42.673Z,43.90
2019-02-06T20:58:10.494Z,43.90
2019-02-06T21:00:38.898Z,43.80
2019-02-06T21:03:06.640Z,43.80
2019-02-06T21:05:34.648Z,43.80
2019-02-06T21:08:02.941Z,43.80
2019-02-06T21:10:31.396Z,43.80
2019-02-06T21:12:59.544Z,44.50
2019-02-06T21:15:27.251Z,43.80
2019-02-06T21:17:54.940Z,43.80
2019-02-06T21:20:23.182Z,43.80
2019-02-06T21:22:50.857Z,43.80
2019-02-06T21:25:19.682Z,43.80
2019-02-06T21:27:47.576Z,44.00
2019-02-06T21:30:19.681Z,44.10
2019-02-06T21:32:47.153Z,44.80
2019-02-06T21:35:14.663Z,44.20
2019-02-06T21:37:42.189Z,44.40
2019-02-06T21:40:11.221Z,44.70
2019-02-06T21:42:38.762Z,44.70
2019-02-06T21:45:07.993Z,44.60
2019-02-06T21:47:35.457Z,44.40
2019-02-06T21:50:03.389Z,44.40
2019-02-06T21:52:30.854Z,44.50
2019-02-06T21:54:58.319Z,44.20
2019-02-06T21:57:25.772Z,44.30
2019-02-06T21:59:53.243Z,44.30
2019-02-06T22:02:20.714Z,44.40
2019-02-06T22:04:48.190Z,44.30
2019-02-06T22:07:15.649Z,44.60
2019-02-06T22:09:43.116Z,44.60
2019-02-06T22:12:10.591Z,44.60
2019-02-06T22:14:38.073Z,44.60
2019-02-06T22:17:05.529Z,44.70
2019-02-06T22:19:32.996Z,44.40
2019-02-06T22:22:00.455Z,44.30
2019-02-06T22:24:27.913Z,44.30
2019-02-06T22:26:55.413Z,44.20
2019-02-06T22:29:23.016Z,44.20
2019-02-06T22:31:50.480Z,44.20
2019-02-06T22:34:17.937Z,44.20
2019-02-06T22:36:45.406Z,45.00
2019-02-06T22:39:12.866Z,44.50
2019-02-06T22:41:40.329Z,44.60
2019-02-06T22:44:07.792Z,44.60
2019-02-06T22:46:35.320Z,44.60
2019-02-06T22:49:02.810Z,44.60
2019-02-06T22:51:30.497Z,44.60
2019-02-06T22:53:58.088Z,44.60
2019-02-06T22:56:25.554Z,44.80
2019-02-06T22:58:53.009Z,44.70
2019-02-06T23:01:22.121Z,44.60
2019-02-06T23:03:49.578Z,44.40
2019-02-06T23:06:17.054Z,44.30
2019-02-06T23:08:44.525Z,44.40
2019-02-06T23:11:11.988Z,44.40
2019-02-06T23:13:39.453Z,44.50
2019-02-06T23:16:06.933Z,44.60
2019-02-06T23:18:35.265Z,44.50
2019-02-06T23:21:02.833Z,44.60
2019-02-06T23:23:30.300Z,44.60
2019-02-06T23:25:57.763Z,44.50
2019-02-06T23:28:25.220Z,44.60
2019-02-06T23:30:52.746Z,44.50
2019-02-06T23:33:20.219Z,44.50
2019-02-06T23:35:47.937Z,44.50
2019-02-06T23:38:15.410Z,44.20
2019-02-06T23:40:42.871Z,44.30
2019-02-06T23:43:10.337Z,44.40
2019-02-06T23:45:37.801Z,44.60
2019-02-06T23:48:05.282Z,44.50
2019-02-06T23:50:32.728Z,44.60
2019-02-06T23:53:00.202Z,44.50
2019-02-06T23:55:27.665Z,44.40
2019-02-06T23:57:55.132Z,44.30
